This is the latest recevied weather packets stored in our database for station/object KP3M-5. If no packets are shown the sender has not sent any weather packets the latest 10 day(s).
| Time | Temp. | Humidity | Pressure | Rain* | Wind** | Luminosity | Snow |
|---|---|---|---|---|---|---|---|
| 1777655104 | 27.78° C | 71% | 1024 hPa | - | - | - | - |
| 1777651504 | 27.22° C | 71% | 1024 hPa | - | - | - | - |
| 1777647908 | 27.22° C | 71% | 1024 hPa | - | - | - | - |
| 1777644304 | 26.67° C | 74% | 1024 hPa | - | - | - | - |
| 1777640704 | 25° C | 80% | 1024 hPa | - | - | - | - |
| 1777637104 | 23.33° C | 88% | 1024 hPa | - | - | - | - |
| 1777633503 | 21.67° C | 91% | 1024 hPa | - | - | - | - |
| 1777626305 | 21.67° C | 92% | 1024 hPa | - | - | - | - |
| 1777622704 | 21.67° C | 91% | 1024 hPa | - | - | - | - |
| 1777586704 | 24.44° C | 82% | 1024 hPa | - | - | - | - |
| 1777583105 | 25° C | 79% | 1024 hPa | - | - | - | - |
| 1777579504 | 26.11° C | 77% | 1024 hPa | - | - | - | - |
| 1777575904 | 26.67° C | 77% | 1024 hPa | - | - | - | - |
| 1777572304 | 27.22° C | 74% | 1024 hPa | - | - | - | - |
| 1777568705 | 26.67° C | 75% | 1024 hPa | - | - | - | - |
| 1777565103 | 26.67° C | 75% | 1024 hPa | - | - | - | - |
| 1777561503 | 26.67° C | 74% | 1024 hPa | - | - | - | - |
| 1777557904 | 26.67° C | 76% | 1024 hPa | - | - | - | - |
| 1777554305 | 24.44° C | 85% | 1024 hPa | - | - | - | - |
| 1777550703 | 22.78° C | 90% | 1024 hPa | - | - | - | - |
| 1777547103 | 22.22° C | 91% | 1024 hPa | - | - | - | - |
| 1777543504 | 21.67° C | 92% | 1024 hPa | - | - | - | - |
| 1777539904 | 21.67° C | 91% | 1024 hPa | - | - | - | - |
| 1777536304 | 21.67° C | 91% | 1024 hPa | - | - | - | - |
* Rain since midnight (hover to see other rain measurements)
** Current wind speed in m/s (hover to see current wind gust speed)